Thunder radar more information blitzortung!


Radar de pluja more information rain snow radar


Visita la nostra xarxa de llocs de meteo:

Template documentation
and downloads

And another site



Wind From: 11-12-2017 11:00 Until: 14:59 warning for: Wind Level: Yellow info button

Pagina Historial Weather Underground text

Diari Resum May 22, 2016 Unitats:  Mètric    Imperial   Tant
« Previous Dia
SegĂźent Dia »
Diari Setmana Mensual Anual Personalitzada
  Maxima: Minima: Media:
Temperatura: 24.5 °C 11.0 °C 17.9 °C
Punt de rosada: 16.4 °C 2.3 °C 12.6 °C
Humitat: 89 % 53 % 72 %
Wind Speed: 22.2 km/h 0.0 km/h 8.5 km/h
RĂ fegues de vent: 22.2 km/h - -
Vent:- - SSW
Pression baro: 1019.9 hPa 1011.7 hPa -
Precipitacions: 6.3 mm    
Historical Graphs
 
 
Dades de taula per May 22, 2016
Temps Temperatura Punt de rosada Pression baro Vent Wind Speed RĂ fegues de vent Humitat Rainfall Rate (Hourly)
00:00 15.6 °C 11.2 °C 1016.8 hPa Calm     75 % 0.0 mm
00:05 15.4 °C 11.0 °C 1017.8 hPa Calm     75 % 0.0 mm
00:10 13.1 °C 10.1 °C 1015.8 hPa Calm   1.6 km/h 82 % 0.0 mm
00:20 13.1 °C 10.3 °C 1014.8 hPa Calm   1.6 km/h 83 % 0.0 mm
00:30 13.1 °C 10.3 °C 1014.8 hPa Calm     83 % 0.0 mm
00:40 13.2 °C 10.4 °C 1014.8 hPa Calm   1.6 km/h 83 % 0.0 mm
00:50 13.2 °C 10.4 °C 1014.8 hPa Calm   1.6 km/h 83 % 0.0 mm
01:00 13.3 °C 10.5 °C 1014.8 hPa Calm   3.2 km/h 83 % 0.0 mm
01:10 13.2 °C 10.4 °C 1014.8 hPa Calm     83 % 0.0 mm
01:20 13.1 °C 10.3 °C 1014.8 hPa ENE 1.6 km/h 1.6 km/h 83 % 0.0 mm
01:30 13.0 °C 10.2 °C 1014.8 hPa Calm     83 % 0.0 mm
01:40 12.9 °C 10.1 °C 1014.8 hPa ENE 1.6 km/h 3.2 km/h 83 % 0.0 mm
01:50 12.8 °C 10.0 °C 1014.8 hPa Calm   3.2 km/h 83 % 0.0 mm
02:00 12.7 °C 9.9 °C 1014.8 hPa Calm   3.2 km/h 83 % 0.0 mm
02:10 12.7 °C 9.9 °C 1014.8 hPa Calm   3.2 km/h 83 % 0.0 mm
02:30 12.8 °C 10.0 °C 1014.8 hPa WSW 1.6 km/h 3.2 km/h 83 % 0.0 mm
02:40 12.9 °C 10.3 °C 1014.8 hPa Calm   1.6 km/h 84 % 0.0 mm
02:50 13.2 °C 10.6 °C 1014.8 hPa SW 1.6 km/h 3.2 km/h 84 % 0.0 mm
03:00 13.6 °C 10.8 °C 1014.8 hPa SSW 3.2 km/h 3.2 km/h 83 % 0.0 mm
03:10 13.8 °C 10.9 °C 1014.8 hPa SE 1.6 km/h 1.6 km/h 83 % 0.0 mm
03:20 14.2 °C 11.3 °C 1014.8 hPa Calm   1.6 km/h 83 % 0.0 mm
03:30 14.9 °C 11.7 °C 1014.8 hPa Calm   6.4 km/h 81 % 0.0 mm
03:40 15.4 °C 11.9 °C 1014.8 hPa ENE 1.6 km/h 3.2 km/h 80 % 0.0 mm
03:50 15.7 °C 12.1 °C 1014.8 hPa ENE 1.6 km/h 3.2 km/h 79 % 0.0 mm
04:00 16.2 °C 12.3 °C 1014.8 hPa ENE 1.6 km/h 3.2 km/h 78 % 0.0 mm
04:10 16.5 °C 12.7 °C 1014.8 hPa North 3.2 km/h 4.8 km/h 78 % 0.0 mm
04:20 17.6 °C 13.5 °C 1015.8 hPa SSW 1.6 km/h 6.4 km/h 77 % 0.0 mm
04:30 18.0 °C 13.5 °C 1015.8 hPa South 1.6 km/h 4.8 km/h 75 % 0.0 mm
04:40 18.2 °C 13.5 °C 1014.8 hPa Calm   4.8 km/h 74 % 0.0 mm
04:50 18.6 °C 13.7 °C 1014.8 hPa South 1.6 km/h 4.8 km/h 73 % 0.0 mm
05:00 19.1 °C 13.7 °C 1014.8 hPa SW 3.2 km/h 6.4 km/h 71 % 0.0 mm
05:10 19.7 °C 13.6 °C 1014.8 hPa SSW 3.2 km/h 12.9 km/h 68 % 0.0 mm
05:20 19.4 °C 12.7 °C 1014.8 hPa SW 4.8 km/h 6.4 km/h 65 % 0.0 mm
05:30 19.4 °C 12.9 °C 1014.8 hPa SW 3.2 km/h 6.4 km/h 66 % 0.0 mm
05:40 19.8 °C 12.6 °C 1014.8 hPa SW 8.0 km/h 8.0 km/h 63 % 0.0 mm
05:50 19.4 °C 12.4 °C 1014.8 hPa SW 3.2 km/h 12.9 km/h 64 % 0.0 mm
06:00 19.6 °C 12.6 °C 1014.8 hPa SW 3.2 km/h 8.0 km/h 64 % 0.0 mm
06:10 20.3 °C 12.6 °C 1014.8 hPa SW 8.0 km/h 9.7 km/h 61 % 0.0 mm
11:19 20.4 °C 12.9 °C 1013.8 hPa SW 8.7 km/h 8.7 km/h 62 % 0.0 mm
11:24 20.4 °C 12.1 °C 1013.8 hPa SW 16.7 km/h 16.7 km/h 59 % 0.0 mm
11:29 20.7 °C 12.4 °C 1013.8 hPa WSW 16.7 km/h 16.7 km/h 59 % 0.0 mm
11:34 20.5 °C 12.2 °C 1013.8 hPa SSW 9.3 km/h 9.3 km/h 59 % 0.0 mm
11:40 20.3 °C 12.0 °C 1013.8 hPa WSW 9.3 km/h 9.3 km/h 59 % 0.0 mm
11:45 20.1 °C 12.1 °C 1013.8 hPa SSW 7.4 km/h 7.9 km/h 60 % 0.0 mm
11:50 20.0 °C 12.0 °C 1013.8 hPa South 9.3 km/h 9.3 km/h 60 % 0.0 mm
11:55 19.8 °C 12.3 °C 1013.8 hPa SSW 12.6 km/h 12.6 km/h 62 % 0.0 mm
12:00 19.8 °C 12.3 °C 1013.8 hPa WSW 13.0 km/h 13.0 km/h 62 % 0.0 mm
12:10 19.6 °C 12.4 °C 1014.8 hPa SW 9.3 km/h 9.3 km/h 63 % 0.0 mm
12:15 19.4 °C 12.4 °C 1014.8 hPa SW 11.1 km/h 11.1 km/h 64 % 0.0 mm
12:20 19.5 °C 12.5 °C 1014.8 hPa WSW 11.4 km/h 11.4 km/h 64 % 0.0 mm
12:25 19.6 °C 12.6 °C 1014.8 hPa SW 13.0 km/h 13.0 km/h 64 % 0.0 mm
12:30 19.9 °C 12.9 °C 1014.8 hPa SW 9.3 km/h 9.3 km/h 64 % 0.0 mm
12:35 19.8 °C 12.8 °C 1013.8 hPa WSW 9.3 km/h 9.3 km/h 64 % 0.0 mm
12:40 19.8 °C 12.8 °C 1013.8 hPa WSW 11.1 km/h 11.1 km/h 64 % 0.0 mm
12:45 20.1 °C 12.6 °C 1013.8 hPa WSW 7.4 km/h 7.4 km/h 62 % 0.0 mm
12:50 20.9 °C 13.3 °C 1013.8 hPa SW 10.0 km/h 10.0 km/h 62 % 0.0 mm
12:55 20.8 °C 13.3 °C 1013.8 hPa SSW 9.3 km/h 9.3 km/h 62 % 0.0 mm
13:00 20.4 °C 12.6 °C 1013.8 hPa SW 13.0 km/h 13.0 km/h 61 % 0.0 mm
13:05 20.7 °C 12.9 °C 1012.8 hPa SSW 7.4 km/h 7.4 km/h 61 % 0.0 mm
13:10 20.5 °C 12.7 °C 1012.8 hPa SW 13.0 km/h 13.0 km/h 61 % 0.0 mm
13:15 20.3 °C 12.6 °C 1012.8 hPa WSW 13.0 km/h 13.0 km/h 61 % 0.0 mm
13:20 20.9 °C 13.1 °C 1013.8 hPa WSW 12.6 km/h 12.6 km/h 61 % 0.0 mm
13:25 20.8 °C 13.0 °C 1013.8 hPa SW 18.5 km/h 18.5 km/h 61 % 0.0 mm
13:30 21.0 °C 13.2 °C 1013.8 hPa WSW 11.1 km/h 11.1 km/h 61 % 0.0 mm
13:35 21.5 °C 13.4 °C 1013.8 hPa SW 18.5 km/h 18.5 km/h 60 % 0.0 mm
13:40 21.8 °C 13.4 °C 1013.8 hPa WSW 13.0 km/h 13.0 km/h 59 % 0.0 mm
13:45 22.1 °C 13.4 °C 1013.8 hPa SW 6.1 km/h 8.7 km/h 58 % 0.0 mm
13:50 22.2 °C 13.6 °C 1012.8 hPa SW 9.3 km/h 9.3 km/h 58 % 0.0 mm
13:55 22.6 °C 13.7 °C 1012.8 hPa SW 11.1 km/h 11.1 km/h 57 % 0.0 mm
14:00 22.9 °C 13.7 °C 1012.8 hPa SW 14.8 km/h 14.8 km/h 56 % 0.0 mm
14:05 23.2 °C 13.9 °C 1011.7 hPa WSW 12.6 km/h 12.6 km/h 56 % 0.0 mm
14:10 23.1 °C 13.6 °C 1011.7 hPa WSW 11.1 km/h 11.1 km/h 55 % 0.0 mm
14:15 23.3 °C 13.8 °C 1011.7 hPa SSE 11.4 km/h 11.4 km/h 55 % 0.0 mm
14:20 23.6 °C 14.1 °C 1011.7 hPa SW 4.2 km/h 4.2 km/h 55 % 0.0 mm
14:25 23.3 °C 13.8 °C 1011.7 hPa WSW 13.0 km/h 13.0 km/h 55 % 0.0 mm
14:30 23.7 °C 13.8 °C 1011.7 hPa WSW 11.1 km/h 11.1 km/h 54 % 0.0 mm
14:35 23.7 °C 13.8 °C 1011.7 hPa South 13.0 km/h 13.0 km/h 54 % 0.0 mm
14:40 23.9 °C 14.0 °C 1011.7 hPa SW 7.4 km/h 7.4 km/h 54 % 0.0 mm
14:45 24.0 °C 13.8 °C 1011.7 hPa SSW 7.4 km/h 7.4 km/h 53 % 0.0 mm
14:50 23.7 °C 13.8 °C 1011.7 hPa SW 16.7 km/h 16.7 km/h 54 % 0.0 mm
14:55 23.7 °C 13.8 °C 1011.7 hPa WSW 16.9 km/h 16.9 km/h 54 % 0.0 mm
15:05 24.1 °C 14.2 °C 1011.7 hPa South 5.6 km/h 5.6 km/h 54 % 0.0 mm
15:10 24.5 °C 14.6 °C 1011.7 hPa West 9.5 km/h 9.5 km/h 54 % 0.0 mm
15:15 24.5 °C 14.3 °C 1011.7 hPa SW 11.1 km/h 11.1 km/h 53 % 0.0 mm
15:20 24.1 °C 13.9 °C 1011.7 hPa South 20.4 km/h 20.4 km/h 53 % 0.0 mm
15:25 23.6 °C 13.7 °C 1011.7 hPa WSW 22.2 km/h 22.2 km/h 54 % 0.0 mm
15:30 23.5 °C 13.9 °C 1011.7 hPa SW 14.8 km/h 14.8 km/h 55 % 0.0 mm
15:35 23.2 °C 13.9 °C 1011.7 hPa SSW 9.7 km/h 9.7 km/h 56 % 0.0 mm
15:40 23.0 °C 13.7 °C 1011.7 hPa WSW 14.8 km/h 14.8 km/h 56 % 0.0 mm
15:45 22.7 °C 13.7 °C 1011.7 hPa SW 16.1 km/h 16.1 km/h 57 % 0.0 mm
15:50 22.1 °C 13.4 °C 1011.7 hPa SW 9.7 km/h 20.9 km/h 58 % 0.0 mm
15:55 21.8 °C 13.7 °C 1011.7 hPa SW 20.4 km/h 20.4 km/h 60 % 0.0 mm
16:00 21.5 °C 13.4 °C 1011.7 hPa SW 14.8 km/h 14.8 km/h 60 % 0.0 mm
16:05 21.1 °C 13.6 °C 1011.7 hPa WSW 16.7 km/h 16.7 km/h 62 % 0.0 mm
16:10 21.0 °C 13.4 °C 1011.7 hPa SW 13.0 km/h 13.0 km/h 62 % 0.0 mm
16:15 20.8 °C 13.5 °C 1011.7 hPa WSW 11.1 km/h 11.1 km/h 63 % 0.0 mm
16:20 20.7 °C 13.4 °C 1011.7 hPa SW 4.8 km/h 12.9 km/h 63 % 0.0 mm
16:25 20.6 °C 13.6 °C 1011.7 hPa SW 8.7 km/h 8.7 km/h 64 % 0.0 mm
16:30 20.4 °C 13.6 °C 1011.7 hPa WSW 18.5 km/h 18.5 km/h 65 % 0.0 mm
16:35 20.2 °C 13.4 °C 1011.7 hPa SW 11.3 km/h 14.5 km/h 65 % 0.0 mm
16:40 20.1 °C 13.6 °C 1011.7 hPa SW 16.7 km/h 16.7 km/h 66 % 0.0 mm
16:45 19.9 °C 13.8 °C 1011.7 hPa WSW 16.1 km/h 16.1 km/h 68 % 0.0 mm
16:50 19.6 °C 14.0 °C 1013.8 hPa SSW 20.4 km/h 20.4 km/h 70 % 0.0 mm
16:55 19.2 °C 14.2 °C 1013.8 hPa SSW 20.4 km/h 20.4 km/h 73 % 0.0 mm
17:00 18.2 °C 14.5 °C 1013.8 hPa SSW 13.0 km/h 13.0 km/h 79 % 0.0 mm
17:05 17.7 °C 14.2 °C 1013.8 hPa West 13.0 km/h 13.0 km/h 80 % 0.0 mm
17:10 17.5 °C 14.0 °C 1013.8 hPa SW 5.8 km/h 5.8 km/h 80 % 0.0 mm
17:15 17.4 °C 13.9 °C 1013.8 hPa SW 3.2 km/h 6.4 km/h 80 % 0.0 mm
17:20 17.4 °C 14.3 °C 1013.8 hPa SW 3.2 km/h 3.2 km/h 82 % 0.0 mm
17:25 17.7 °C 14.9 °C 1013.8 hPa SW 5.8 km/h 5.8 km/h 84 % 0.0 mm
17:30 17.7 °C 15.3 °C 1013.8 hPa West 10.0 km/h 10.0 km/h 86 % 4.1 mm
17:35 17.8 °C 15.6 °C 1013.8 hPa SW 4.8 km/h 9.7 km/h 87 % 0.0 mm
17:40 17.6 °C 15.8 °C 1013.8 hPa SW 9.7 km/h 9.7 km/h 89 % 4.1 mm
17:45 17.8 °C 15.8 °C 1013.8 hPa NNW 5.6 km/h 5.6 km/h 88 % 4.1 mm
17:50 18.3 °C 16.3 °C 1013.8 hPa WSW 7.4 km/h 7.4 km/h 88 % 4.1 mm
17:55 18.6 °C 16.4 °C 1013.8 hPa WSW 1.6 km/h 8.0 km/h 87 % 0.0 mm
18:00 18.7 °C 16.2 °C 1013.8 hPa WSW 1.6 km/h 4.8 km/h 85 % 0.0 mm
18:05 19.0 °C 16.2 °C 1012.8 hPa WSW 4.2 km/h   84 % 6.3 mm
18:10 19.1 °C 16.2 °C 1012.8 hPa SSE 3.7 km/h 3.7 km/h 83 % 6.3 mm
18:15 19.2 °C 16.1 °C 1012.8 hPa WSW 3.7 km/h 4.2 km/h 82 % 6.3 mm
18:20 19.3 °C 16.2 °C 1013.8 hPa SSW 3.7 km/h 3.7 km/h 82 % 6.3 mm
18:25 19.4 °C 16.1 °C 1013.8 hPa SW 1.6 km/h 8.0 km/h 81 % 0.0 mm
18:30 19.2 °C 15.8 °C 1013.8 hPa SSW 5.6 km/h 5.8 km/h 81 % 2.3 mm
18:35 19.2 °C 15.8 °C 1012.8 hPa SW 7.4 km/h 7.4 km/h 81 % 2.3 mm
18:40 18.8 °C 15.8 °C 1012.8 hPa SW 8.7 km/h 8.7 km/h 83 % 2.3 mm
18:45 18.8 °C 15.8 °C 1012.8 hPa WSW 11.1 km/h 11.1 km/h 83 % 2.3 mm
18:50 18.5 °C 15.6 °C 1013.8 hPa SSW 7.4 km/h 7.4 km/h 83 % 2.3 mm
18:55 18.5 °C 15.6 °C 1013.8 hPa SW 5.6 km/h 5.6 km/h 83 % 2.3 mm
19:00 18.5 °C 15.6 °C 1013.8 hPa SW 5.6 km/h 5.6 km/h 83 % 2.3 mm
19:05 18.5 °C 15.6 °C 1012.8 hPa SW 7.9 km/h 7.9 km/h 83 % 0.0 mm
19:15 18.5 °C 15.6 °C 1012.8 hPa SW 3.2 km/h 8.0 km/h 83 % 0.0 mm
19:20 18.4 °C 15.4 °C 1012.8 hPa SW 4.8 km/h 8.0 km/h 83 % 0.0 mm
19:25 18.4 °C 15.4 °C 1012.8 hPa SW 5.6 km/h 5.6 km/h 83 % 0.0 mm
19:30 18.4 °C 15.4 °C 1012.8 hPa WSW 1.9 km/h 1.9 km/h 83 % 0.0 mm
19:35 18.4 °C 15.4 °C 1013.8 hPa SW 5.0 km/h 5.0 km/h 83 % 0.0 mm
19:40 18.4 °C 15.4 °C 1013.8 hPa Calm     83 % 0.0 mm
19:45 18.5 °C 15.4 °C 1013.8 hPa SW 3.7 km/h 3.7 km/h 82 % 0.0 mm
19:50 18.5 °C 15.4 °C 1013.8 hPa SW 3.7 km/h 3.7 km/h 82 % 0.0 mm
19:55 18.6 °C 15.4 °C 1013.8 hPa WSW 5.6 km/h 5.6 km/h 82 % 0.0 mm
20:00 18.7 °C 15.6 °C 1013.8 hPa SW 5.6 km/h 5.6 km/h 82 % 0.0 mm
20:05 18.8 °C 15.7 °C 1013.8 hPa SW 3.7 km/h 3.7 km/h 82 % 0.0 mm
20:10 18.9 °C 15.6 °C 1013.8 hPa WSW 3.7 km/h 3.7 km/h 81 % 0.0 mm
20:15 18.9 °C 15.6 °C 1013.8 hPa SW 3.7 km/h 3.7 km/h 81 % 0.0 mm
20:20 19.0 °C 15.3 °C 1012.8 hPa SW 3.7 km/h 3.7 km/h 79 % 0.0 mm
20:25 19.1 °C 15.2 °C 1012.8 hPa SW 4.2 km/h 4.2 km/h 78 % 0.0 mm
20:30 19.1 °C 14.9 °C 1012.8 hPa SW 3.9 km/h   77 % 0.0 mm
20:35 19.0 °C 14.4 °C 1013.8 hPa SW 5.6 km/h 5.6 km/h 75 % 0.0 mm
20:40 19.0 °C 14.3 °C 1013.8 hPa SW 1.9 km/h   74 % 0.0 mm
20:45 19.0 °C 14.1 °C 1013.8 hPa SW 1.9 km/h   73 % 0.0 mm
20:50 18.8 °C 13.8 °C 1014.8 hPa Calm     73 % 0.0 mm
20:55 18.8 °C 13.7 °C 1014.8 hPa Calm     72 % 0.0 mm
21:00 19.0 °C 13.6 °C 1014.8 hPa ESE 6.1 km/h 6.1 km/h 71 % 0.0 mm
21:05 18.6 °C 14.3 °C 1015.8 hPa ENE 11.1 km/h 11.1 km/h 76 % 0.0 mm
21:10 18.2 °C 14.5 °C 1015.8 hPa NE 17.2 km/h 17.2 km/h 79 % 0.0 mm
21:15 17.8 °C 14.5 °C 1015.8 hPa ESE 18.5 km/h 18.5 km/h 81 % 0.0 mm
21:20 17.2 °C 13.9 °C 1015.8 hPa ENE 10.0 km/h 10.0 km/h 81 % 0.0 mm
21:25 17.0 °C 13.7 °C 1015.8 hPa ENE 10.0 km/h 10.0 km/h 81 % 0.0 mm
21:30 16.5 °C 13.4 °C 1015.8 hPa East 13.0 km/h 13.0 km/h 82 % 0.0 mm
21:35 16.2 °C 12.9 °C 1015.8 hPa East 13.0 km/h 13.0 km/h 81 % 0.0 mm
21:40 11.9 °C 4.6 °C 1019.9 hPa WSW 4.8 km/h 11.3 km/h 61 % 0.0 mm
21:45 15.8 °C 12.6 °C 1015.8 hPa East 4.7 km/h 13.7 km/h 81 % 0.0 mm
21:50 15.6 °C 12.3 °C 1016.8 hPa ENE 15.6 km/h 15.6 km/h 81 % 0.0 mm
21:55 15.3 °C 12.1 °C 1016.8 hPa ENE 15.6 km/h 15.6 km/h 81 % 0.0 mm
22:00 15.2 °C 11.9 °C 1016.8 hPa ENE 15.6 km/h 15.6 km/h 81 % 0.0 mm
22:05 15.0 °C 11.9 °C 1017.8 hPa ENE 15.6 km/h 15.6 km/h 82 % 0.0 mm
22:10 11.5 °C 3.3 °C 1019.9 hPa West 4.8 km/h 9.7 km/h 57 % 0.0 mm
22:11 14.8 °C 11.8 °C 1017.8 hPa ENE 15.6 km/h 15.6 km/h 82 % 0.0 mm
22:16 14.7 °C 11.7 °C 1017.8 hPa ENE 15.6 km/h 15.6 km/h 82 % 0.0 mm
22:20 11.4 °C 3.2 °C 1019.9 hPa WNW 4.8 km/h 6.4 km/h 57 % 0.0 mm
22:21 14.6 °C 11.6 °C 1016.8 hPa ENE 15.6 km/h 15.6 km/h 82 % 0.0 mm
22:26 14.5 °C 11.7 °C 1016.8 hPa ENE 15.6 km/h 15.6 km/h 83 % 0.0 mm
22:30 11.3 °C 3.1 °C 1019.9 hPa SW 4.8 km/h 6.4 km/h 57 % 0.0 mm
22:31 14.5 °C 11.7 °C 1016.8 hPa ENE 15.6 km/h 15.6 km/h 83 % 0.0 mm
22:36 14.4 °C 11.6 °C 1017.8 hPa ENE 15.6 km/h 15.6 km/h 83 % 0.0 mm
22:40 11.2 °C 3.0 °C 1019.9 hPa South 4.8 km/h 6.4 km/h 57 % 0.0 mm
22:41 14.4 °C 11.6 °C 1017.8 hPa ENE 15.6 km/h 15.6 km/h 83 % 0.0 mm
22:46 14.3 °C 11.4 °C 1017.8 hPa ENE 15.6 km/h 15.6 km/h 83 % 0.0 mm
22:50 11.2 °C 3.0 °C 1019.9 hPa ENE 3.2 km/h 9.7 km/h 57 % 0.0 mm
22:51 14.3 °C 11.4 °C 1017.8 hPa ENE 15.6 km/h 15.6 km/h 83 % 0.0 mm
22:56 14.2 °C 11.3 °C 1017.8 hPa ENE 15.6 km/h 15.6 km/h 83 % 0.0 mm
23:00 11.1 °C 2.7 °C 1019.9 hPa WNW 4.8 km/h 9.7 km/h 56 % 0.0 mm
23:01 14.1 °C 11.3 °C 1017.8 hPa ENE 15.6 km/h 15.6 km/h 83 % 0.0 mm
23:06 14.1 °C 11.3 °C 1018.8 hPa ENE 15.6 km/h 15.6 km/h 83 % 0.0 mm
23:10 11.2 °C 2.7 °C 1019.9 hPa West 4.8 km/h 9.7 km/h 56 % 0.0 mm
23:11 14.0 °C 11.3 °C 1018.8 hPa ENE 15.6 km/h 15.6 km/h 84 % 0.0 mm
23:17 13.9 °C 11.2 °C 1018.8 hPa ENE 15.6 km/h 15.6 km/h 84 % 0.0 mm
23:20 11.1 °C 2.7 °C 1019.9 hPa WNW 4.8 km/h 12.9 km/h 56 % 0.0 mm
23:22 13.9 °C 11.2 °C 1017.8 hPa ENE 15.6 km/h 15.6 km/h 84 % 0.0 mm
23:27 13.8 °C 11.2 °C 1017.8 hPa ENE 15.6 km/h 15.6 km/h 84 % 0.0 mm
23:30 11.0 °C 2.6 °C 1019.9 hPa West 4.8 km/h 9.7 km/h 56 % 0.0 mm
23:32 13.7 °C 11.1 °C 1017.8 hPa ENE 15.6 km/h 15.6 km/h 84 % 0.0 mm
23:37 13.6 °C 10.9 °C 1018.8 hPa ENE 15.6 km/h 15.6 km/h 84 % 0.0 mm
23:42 13.5 °C 10.8 °C 1018.8 hPa ENE 15.6 km/h 15.6 km/h 84 % 0.0 mm
23:47 13.5 °C 10.8 °C 1018.8 hPa ENE 15.6 km/h 15.6 km/h 84 % 0.0 mm
23:50 11.0 °C 2.3 °C 1019.9 hPa West 8.0 km/h 11.3 km/h 55 % 0.0 mm
23:52 13.4 °C 10.9 °C 1018.8 hPa ENE 15.6 km/h 15.6 km/h 85 % 0.0 mm
23:57 13.3 °C 10.8 °C 1018.8 hPa ENE 15.6 km/h 15.6 km/h 85 % 0.0 mm
Meteo Sesrovires
Elogis d' Weather Underground - 3.5 mb

Guio original per  Jim McMurry - jmcmurry@mwt.net Adaptat per a la plantilla per  Wim van der Kuil - Leuven-Template.eu

Trobareu la nostra informacio del temps tambe a:

Weather Underground

AWEKAS